createdAt,value
2019-02-20T00:00:09.341Z,2
2019-02-20T00:01:09.355Z,2
2019-02-20T00:02:09.323Z,2
2019-02-20T00:03:09.815Z,3
2019-02-20T00:04:09.472Z,3
2019-02-20T00:05:09.511Z,3
2019-02-20T00:06:09.548Z,3
2019-02-20T00:07:09.458Z,3
2019-02-20T00:08:09.350Z,3
2019-02-20T00:09:09.286Z,3
2019-02-20T00:10:09.281Z,3
2019-02-20T00:11:09.692Z,3
2019-02-20T00:12:09.500Z,3
2019-02-20T00:13:09.491Z,3
2019-02-20T00:14:09.406Z,3
2019-02-20T00:15:09.483Z,2
2019-02-20T00:16:09.543Z,2
2019-02-20T00:17:09.424Z,2
2019-02-20T00:18:09.336Z,2
2019-02-20T00:19:09.465Z,2
2019-02-20T00:20:09.382Z,2
2019-02-20T00:21:09.460Z,2
2019-02-20T00:22:09.304Z,2
2019-02-20T00:23:09.480Z,2
2019-02-20T00:24:09.575Z,2
2019-02-20T00:25:09.442Z,2
2019-02-20T00:26:09.516Z,2
2019-02-20T00:27:09.667Z,2
2019-02-20T00:28:09.443Z,2
2019-02-20T00:29:09.604Z,2
2019-02-20T00:30:09.421Z,2
2019-02-20T00:31:09.543Z,2
2019-02-20T00:32:09.335Z,2
2019-02-20T00:33:09.346Z,2
2019-02-20T00:34:09.369Z,2
2019-02-20T00:35:09.439Z,2
2019-02-20T00:36:09.443Z,2
2019-02-20T00:37:09.368Z,2
2019-02-20T00:38:09.310Z,2
2019-02-20T00:39:09.588Z,2
2019-02-20T00:40:09.692Z,2
2019-02-20T00:41:09.360Z,2
2019-02-20T00:42:09.612Z,2
2019-02-20T00:43:09.480Z,2
2019-02-20T00:44:09.381Z,2
2019-02-20T00:45:09.642Z,2
2019-02-20T00:46:09.479Z,2
2019-02-20T00:47:09.411Z,2
2019-02-20T00:48:09.511Z,2
2019-02-20T00:49:09.619Z,2
2019-02-20T00:50:09.458Z,2
2019-02-20T00:51:09.450Z,2
2019-02-20T00:52:09.417Z,2
2019-02-20T00:53:09.363Z,2
2019-02-20T00:54:09.952Z,2
2019-02-20T00:55:09.359Z,2
2019-02-20T00:56:09.770Z,2
2019-02-20T00:57:09.753Z,2
2019-02-20T00:58:09.410Z,2
2019-02-20T00:59:09.386Z,2
2019-02-20T01:00:09.429Z,2
2019-02-20T01:01:09.329Z,2
2019-02-20T01:02:09.470Z,2
2019-02-20T01:03:09.524Z,2
2019-02-20T01:04:09.481Z,2
2019-02-20T01:05:09.327Z,2
2019-02-20T01:06:09.426Z,2
2019-02-20T01:07:09.359Z,2
2019-02-20T01:08:09.477Z,2
2019-02-20T01:09:09.509Z,2
2019-02-20T01:10:09.379Z,2
2019-02-20T01:11:09.335Z,2
2019-02-20T01:12:09.520Z,2
2019-02-20T01:13:09.297Z,2
2019-02-20T01:14:09.427Z,2
2019-02-20T01:15:09.372Z,2
2019-02-20T01:16:09.537Z,2
2019-02-20T01:17:09.416Z,2
2019-02-20T01:18:09.906Z,2
2019-02-20T01:19:09.496Z,2
2019-02-20T01:20:09.433Z,2
2019-02-20T01:21:09.361Z,2
2019-02-20T01:22:09.341Z,2
2019-02-20T01:23:09.572Z,2
2019-02-20T01:24:09.441Z,2
2019-02-20T01:25:09.610Z,2
2019-02-20T01:26:09.364Z,2
2019-02-20T01:27:09.321Z,2
2019-02-20T01:28:09.427Z,2
2019-02-20T01:29:09.361Z,2
2019-02-20T01:30:09.497Z,2
2019-02-20T01:31:09.361Z,2
2019-02-20T01:32:09.683Z,2
2019-02-20T01:33:09.379Z,2
2019-02-20T01:34:09.575Z,2
2019-02-20T01:35:09.641Z,2
2019-02-20T01:36:09.458Z,2
2019-02-20T01:37:09.467Z,2
2019-02-20T01:38:09.632Z,2
2019-02-20T01:39:09.559Z,2
2019-02-20T01:40:09.411Z,2
2019-02-20T01:41:09.420Z,2
2019-02-20T01:42:09.552Z,2
2019-02-20T01:43:09.655Z,2
2019-02-20T01:44:09.361Z,2
2019-02-20T01:45:09.406Z,2
2019-02-20T01:46:09.466Z,2
2019-02-20T01:47:09.305Z,2
2019-02-20T01:48:09.377Z,2
2019-02-20T01:49:09.471Z,2
2019-02-20T01:50:09.600Z,2
2019-02-20T01:51:09.491Z,2
2019-02-20T01:52:09.371Z,2
2019-02-20T01:53:10.643Z,2
2019-02-20T01:54:09.480Z,2
2019-02-20T01:55:09.603Z,2
2019-02-20T01:56:09.810Z,2
2019-02-20T01:57:09.354Z,2
2019-02-20T01:58:09.343Z,2
2019-02-20T01:59:09.506Z,2
2019-02-20T02:00:09.552Z,2
2019-02-20T02:01:09.439Z,2
2019-02-20T02:02:09.405Z,2
2019-02-20T02:03:09.349Z,2
2019-02-20T02:04:09.801Z,2
2019-02-20T02:05:15.489Z,2
2019-02-20T02:06:09.656Z,2
2019-02-20T02:07:09.314Z,2
2019-02-20T02:08:09.347Z,2
2019-02-20T02:09:09.381Z,2
2019-02-20T02:10:09.668Z,2
2019-02-20T02:11:09.340Z,2
2019-02-20T02:12:09.302Z,2
2019-02-20T02:13:09.423Z,2
2019-02-20T02:14:09.555Z,2
2019-02-20T02:15:09.335Z,2
2019-02-20T02:16:09.291Z,2
2019-02-20T02:17:09.311Z,2
2019-02-20T02:18:09.604Z,2
2019-02-20T02:19:09.426Z,2
2019-02-20T02:20:09.369Z,2
2019-02-20T02:21:09.326Z,2
2019-02-20T02:22:09.406Z,2
2019-02-20T02:23:19.427Z,2
2019-02-20T02:24:09.361Z,2
2019-02-20T02:25:09.441Z,2
2019-02-20T02:26:11.106Z,2
2019-02-20T02:27:09.606Z,2
2019-02-20T02:28:09.733Z,2
2019-02-20T02:29:09.305Z,2
2019-02-20T02:30:09.352Z,2
2019-02-20T02:31:09.588Z,2
2019-02-20T02:32:09.312Z,2
2019-02-20T02:33:09.357Z,2
2019-02-20T02:34:09.294Z,2
2019-02-20T02:35:09.416Z,2
2019-02-20T02:36:09.382Z,2
2019-02-20T02:37:09.298Z,2
2019-02-20T02:38:09.441Z,2
2019-02-20T02:39:09.574Z,2
2019-02-20T02:40:09.588Z,2
2019-02-20T02:41:09.328Z,2
2019-02-20T02:42:09.350Z,2
2019-02-20T02:43:09.589Z,2
2019-02-20T02:44:09.448Z,2
2019-02-20T02:45:09.254Z,2
2019-02-20T02:46:09.422Z,2
2019-02-20T02:47:09.504Z,2
2019-02-20T02:48:09.256Z,2
2019-02-20T02:49:09.372Z,2
2019-02-20T02:50:09.274Z,2
2019-02-20T02:51:09.302Z,2
2019-02-20T02:52:09.473Z,2
2019-02-20T02:53:09.372Z,2
2019-02-20T02:54:09.255Z,2
2019-02-20T02:55:09.272Z,2
2019-02-20T02:56:09.406Z,2
2019-02-20T02:57:09.445Z,2
2019-02-20T02:58:09.306Z,2
2019-02-20T02:59:09.286Z,2
2019-02-20T03:00:09.356Z,2
2019-02-20T03:01:09.414Z,2
2019-02-20T03:02:09.443Z,2
2019-02-20T03:03:09.302Z,2
2019-02-20T03:04:09.334Z,2
2019-02-20T03:05:09.436Z,2
2019-02-20T03:06:09.311Z,2
2019-02-20T03:07:09.509Z,2
2019-02-20T03:08:09.393Z,2
2019-02-20T03:09:09.433Z,2
2019-02-20T03:10:09.362Z,2
2019-02-20T03:11:09.313Z,2
2019-02-20T03:12:09.521Z,2
2019-02-20T03:13:09.343Z,2
2019-02-20T03:14:09.292Z,2
2019-02-20T03:15:09.368Z,2
2019-02-20T03:16:09.409Z,2
2019-02-20T03:17:09.627Z,2
2019-02-20T03:18:09.293Z,2
2019-02-20T03:19:09.366Z,2
2019-02-20T03:20:09.460Z,2
2019-02-20T03:21:09.436Z,2
2019-02-20T03:22:09.510Z,2
2019-02-20T03:23:09.340Z,2
2019-02-20T03:24:09.290Z,2
2019-02-20T03:25:09.425Z,2
2019-02-20T03:26:09.654Z,2
2019-02-20T03:27:09.403Z,2
2019-02-20T03:28:09.478Z,2
2019-02-20T03:29:09.299Z,2
2019-02-20T03:30:09.354Z,2
2019-02-20T03:31:09.601Z,2
2019-02-20T03:32:09.423Z,2
2019-02-20T03:33:09.386Z,2
2019-02-20T03:34:09.327Z,2
2019-02-20T03:35:09.296Z,2
2019-02-20T03:36:09.508Z,2
2019-02-20T03:37:09.675Z,2
2019-02-20T03:38:09.814Z,2
2019-02-20T03:39:09.355Z,2
2019-02-20T03:40:09.467Z,2
2019-02-20T03:41:09.540Z,2
2019-02-20T03:42:09.614Z,2
2019-02-20T03:43:09.333Z,2
2019-02-20T03:44:09.337Z,2
2019-02-20T03:45:09.440Z,2
2019-02-20T03:46:09.514Z,2
2019-02-20T03:47:09.314Z,2
2019-02-20T03:48:09.302Z,2
2019-02-20T03:49:09.284Z,2
2019-02-20T03:50:09.376Z,2
2019-02-20T03:51:09.383Z,2
2019-02-20T03:52:09.460Z,2
2019-02-20T03:53:09.324Z,2
2019-02-20T03:54:09.281Z,2
2019-02-20T03:55:09.294Z,2
2019-02-20T03:56:09.379Z,2
2019-02-20T03:57:09.495Z,2
2019-02-20T03:58:09.298Z,2
2019-02-20T03:59:09.367Z,2
2019-02-20T04:00:09.370Z,2
2019-02-20T04:01:09.451Z,2
2019-02-20T04:02:09.390Z,2
2019-02-20T04:03:09.336Z,2
2019-02-20T04:04:09.334Z,2
2019-02-20T04:05:09.342Z,2
2019-02-20T04:06:09.482Z,3
2019-02-20T04:07:09.329Z,3
2019-02-20T04:08:09.342Z,2
2019-02-20T04:09:09.536Z,2
2019-02-20T04:10:09.285Z,2
2019-02-20T04:11:09.295Z,2
2019-02-20T04:12:09.316Z,2
2019-02-20T04:13:09.586Z,2
2019-02-20T04:14:09.476Z,2
2019-02-20T04:15:09.288Z,2
2019-02-20T04:16:09.308Z,2
2019-02-20T04:17:09.358Z,2
2019-02-20T04:18:10.837Z,2
2019-02-20T04:19:09.326Z,2
2019-02-20T04:20:09.366Z,2
2019-02-20T04:21:09.299Z,2
2019-02-20T04:22:09.347Z,2
2019-02-20T04:23:09.457Z,2
2019-02-20T04:24:09.479Z,2
2019-02-20T04:25:09.293Z,2
2019-02-20T04:26:09.982Z,2
2019-02-20T04:27:09.464Z,2
2019-02-20T04:28:09.322Z,2
2019-02-20T04:29:09.390Z,2
2019-02-20T04:30:09.464Z,2
2019-02-20T04:31:09.497Z,2
2019-02-20T04:32:09.318Z,2
2019-02-20T04:33:09.421Z,2
2019-02-20T04:34:09.441Z,2
2019-02-20T04:35:09.630Z,2
2019-02-20T04:36:09.328Z,2
2019-02-20T04:37:09.377Z,2
2019-02-20T04:38:09.412Z,2
2019-02-20T04:39:09.479Z,2
2019-02-20T04:40:09.385Z,2
2019-02-20T04:41:09.374Z,2
2019-02-20T04:42:09.365Z,2
2019-02-20T04:43:09.520Z,2
2019-02-20T04:44:09.522Z,2
2019-02-20T04:45:09.300Z,2
2019-02-20T04:46:09.339Z,2
2019-02-20T04:47:09.376Z,2
2019-02-20T04:48:09.426Z,2
2019-02-20T04:49:09.369Z,2
2019-02-20T04:50:09.354Z,2
2019-02-20T04:51:09.385Z,2
2019-02-20T04:52:09.555Z,2
2019-02-20T04:53:09.451Z,2
2019-02-20T04:54:13.339Z,2
2019-02-20T04:55:09.395Z,2
2019-02-20T04:56:09.411Z,2
2019-02-20T04:57:09.533Z,2
2019-02-20T04:58:09.451Z,2
2019-02-20T04:59:09.295Z,2
2019-02-20T05:00:09.337Z,2
2019-02-20T05:01:09.313Z,2
2019-02-20T05:02:09.424Z,2
2019-02-20T05:03:09.601Z,2
2019-02-20T05:04:09.346Z,2
2019-02-20T05:05:09.358Z,2
2019-02-20T05:06:09.343Z,2
2019-02-20T05:07:09.635Z,2
2019-02-20T05:08:09.607Z,2
2019-02-20T05:09:09.302Z,2
2019-02-20T05:10:09.370Z,2
2019-02-20T05:11:09.586Z,2
2019-02-20T05:12:09.423Z,2
2019-02-20T05:13:09.751Z,2
2019-02-20T05:14:09.621Z,2
2019-02-20T05:15:09.680Z,2
2019-02-20T05:16:09.414Z,2
2019-02-20T05:17:09.322Z,2
2019-02-20T05:18:09.358Z,2
2019-02-20T05:19:09.318Z,2
2019-02-20T05:20:09.606Z,2
2019-02-20T05:21:09.523Z,2
2019-02-20T05:22:09.481Z,2
2019-02-20T05:23:09.588Z,2
2019-02-20T05:24:09.460Z,2
2019-02-20T05:25:09.416Z,2
2019-02-20T05:26:09.453Z,2
2019-02-20T05:27:09.646Z,2
2019-02-20T05:28:09.787Z,2
2019-02-20T05:29:09.431Z,2
2019-02-20T05:30:09.379Z,2
2019-02-20T05:31:09.403Z,2
2019-02-20T05:32:09.538Z,2
2019-02-20T05:33:09.748Z,2
2019-02-20T05:34:09.638Z,2
2019-02-20T05:35:09.700Z,2
2019-02-20T05:36:09.774Z,2
2019-02-20T05:37:09.398Z,2
2019-02-20T05:38:09.430Z,2
2019-02-20T05:39:09.533Z,2
2019-02-20T05:40:09.403Z,2
2019-02-20T05:41:09.539Z,2
2019-02-20T05:42:09.677Z,2
2019-02-20T05:43:09.689Z,2
2019-02-20T05:44:09.652Z,2
2019-02-20T05:45:09.640Z,2
2019-02-20T05:46:09.439Z,3
2019-02-20T05:47:09.598Z,3
2019-02-20T05:48:09.446Z,2
2019-02-20T05:49:09.415Z,2
2019-02-20T05:50:09.630Z,2
2019-02-20T05:51:09.634Z,2
2019-02-20T05:52:09.538Z,2
2019-02-20T05:53:09.514Z,2
2019-02-20T05:54:09.381Z,2
2019-02-20T05:55:09.493Z,2
2019-02-20T05:56:11.577Z,2
2019-02-20T05:57:10.709Z,2
2019-02-20T05:58:09.431Z,2
2019-02-20T05:59:09.517Z,2
2019-02-20T06:00:09.590Z,2
2019-02-20T06:01:09.528Z,2
2019-02-20T06:02:09.597Z,2
2019-02-20T06:03:09.605Z,2
2019-02-20T06:04:09.701Z,2
2019-02-20T06:05:09.359Z,2
2019-02-20T06:06:10.253Z,2
2019-02-20T06:07:09.619Z,2
2019-02-20T06:08:09.410Z,2
2019-02-20T06:09:09.477Z,2
2019-02-20T06:10:09.389Z,3
2019-02-20T06:11:14.656Z,3
2019-02-20T06:12:09.919Z,2
2019-02-20T06:13:09.424Z,2
2019-02-20T06:14:09.449Z,2
2019-02-20T06:15:09.808Z,2
2019-02-20T06:16:09.672Z,2
2019-02-20T06:17:09.587Z,2
2019-02-20T06:18:09.972Z,2
2019-02-20T06:19:09.385Z,2
2019-02-20T06:20:09.532Z,2
2019-02-20T06:21:09.640Z,2
2019-02-20T06:22:10.092Z,2
2019-02-20T06:23:09.441Z,2
2019-02-20T06:24:09.601Z,2
2019-02-20T06:25:10.742Z,4
2019-02-20T06:26:09.443Z,3
2019-02-20T06:27:09.508Z,2
2019-02-20T06:28:09.724Z,3
2019-02-20T06:29:11.460Z,3
2019-02-20T06:30:09.865Z,3
2019-02-20T06:31:09.562Z,2
2019-02-20T06:32:09.537Z,2
2019-02-20T06:33:09.755Z,2
2019-02-20T06:34:10.154Z,2
2019-02-20T06:35:09.527Z,2
2019-02-20T06:36:09.418Z,2
2019-02-20T06:37:09.377Z,2
2019-02-20T06:38:11.007Z,2
2019-02-20T06:39:09.803Z,2
2019-02-20T06:40:09.417Z,2
2019-02-20T06:41:13.753Z,4
2019-02-20T06:42:09.511Z,4
2019-02-20T06:43:09.687Z,3
2019-02-20T06:44:09.700Z,2
2019-02-20T06:45:09.385Z,2
2019-02-20T06:46:09.508Z,2
2019-02-20T06:47:09.696Z,2
2019-02-20T06:48:09.365Z,2
2019-02-20T06:49:09.559Z,3
2019-02-20T06:50:09.569Z,2
2019-02-20T06:51:10.002Z,4
2019-02-20T06:52:09.609Z,7
2019-02-20T06:53:10.299Z,7
2019-02-20T06:54:09.496Z,3
2019-02-20T06:55:09.497Z,3
2019-02-20T06:56:10.739Z,5
2019-02-20T06:57:11.091Z,4
2019-02-20T06:58:09.596Z,4
2019-02-20T06:59:10.484Z,4
2019-02-20T07:00:09.523Z,3
2019-02-20T07:01:09.408Z,3
2019-02-20T07:02:09.429Z,4
2019-02-20T07:03:09.391Z,3
2019-02-20T07:04:09.472Z,3
2019-02-20T07:05:09.778Z,3
2019-02-20T07:06:09.743Z,3
2019-02-20T07:07:10.305Z,3
2019-02-20T07:08:09.386Z,3
2019-02-20T07:09:09.496Z,3
2019-02-20T07:10:09.589Z,3
2019-02-20T07:11:09.681Z,3
2019-02-20T07:12:09.830Z,3
2019-02-20T07:13:09.480Z,3
2019-02-20T07:14:09.739Z,3
2019-02-20T07:15:10.668Z,4
2019-02-20T07:17:09.620Z,4
2019-02-20T07:18:09.617Z,7
2019-02-20T07:19:09.526Z,6
2019-02-20T07:20:09.494Z,5
2019-02-20T07:21:09.574Z,4
2019-02-20T07:22:09.634Z,3
2019-02-20T07:23:09.713Z,3
2019-02-20T07:24:09.781Z,3
2019-02-20T07:25:10.244Z,3
2019-02-20T07:26:09.666Z,3
2019-02-20T07:27:09.699Z,3
2019-02-20T07:28:09.462Z,4
2019-02-20T07:29:09.594Z,4
2019-02-20T07:30:09.503Z,5
2019-02-20T07:31:09.553Z,5
2019-02-20T07:32:09.878Z,5
2019-02-20T07:33:09.501Z,4
2019-02-20T07:34:09.701Z,4
2019-02-20T07:35:09.615Z,4
2019-02-20T07:36:10.593Z,4
2019-02-20T07:37:09.665Z,3
2019-02-20T07:38:09.558Z,3
2019-02-20T07:39:09.439Z,3
2019-02-20T07:40:09.585Z,3
2019-02-20T07:41:10.140Z,4
2019-02-20T07:42:09.641Z,4
2019-02-20T07:43:09.472Z,4
2019-02-20T07:44:09.498Z,4
2019-02-20T07:45:09.491Z,4
2019-02-20T07:46:09.640Z,3
2019-02-20T07:47:09.801Z,3
2019-02-20T07:48:10.092Z,4
2019-02-20T07:49:09.508Z,3
2019-02-20T07:50:09.598Z,3
2019-02-20T07:51:09.692Z,2
2019-02-20T07:52:09.675Z,3
2019-02-20T07:53:09.569Z,3
2019-02-20T07:54:09.545Z,3
2019-02-20T07:55:13.542Z,4
2019-02-20T07:56:09.625Z,4
2019-02-20T07:57:10.002Z,4
2019-02-20T07:58:10.202Z,4
2019-02-20T07:59:09.477Z,4
2019-02-20T08:00:09.629Z,4
2019-02-20T08:01:09.521Z,5
2019-02-20T08:02:09.672Z,5
2019-02-20T08:03:09.656Z,5
2019-02-20T08:04:09.824Z,4
2019-02-20T08:05:09.891Z,4
2019-02-20T08:06:09.648Z,5
2019-02-20T08:07:09.604Z,4
2019-02-20T08:08:09.469Z,4
2019-02-20T08:09:09.422Z,4
2019-02-20T08:10:09.865Z,4
2019-02-20T08:11:09.544Z,5
2019-02-20T08:12:10.530Z,4
2019-02-20T08:13:09.635Z,4
2019-02-20T08:14:13.054Z,4
2019-02-20T08:15:09.520Z,4
2019-02-20T08:16:09.670Z,4
2019-02-20T08:17:09.611Z,4
2019-02-20T08:18:09.634Z,4
2019-02-20T08:19:09.426Z,4
2019-02-20T08:20:09.547Z,4
2019-02-20T08:21:09.487Z,4
2019-02-20T08:22:09.440Z,4
2019-02-20T08:23:09.681Z,4
2019-02-20T08:24:09.596Z,4
2019-02-20T08:25:09.446Z,4
2019-02-20T08:26:09.709Z,4
2019-02-20T08:27:09.485Z,4
2019-02-20T08:28:09.464Z,4
2019-02-20T08:29:09.523Z,4
2019-02-20T08:30:09.395Z,4
2019-02-20T08:31:09.431Z,3
2019-02-20T08:32:09.359Z,3
2019-02-20T08:33:09.427Z,3
2019-02-20T08:34:09.482Z,3
2019-02-20T08:35:09.277Z,4
2019-02-20T08:36:09.528Z,3
2019-02-20T08:37:09.428Z,3
2019-02-20T08:38:09.374Z,3
2019-02-20T08:39:09.411Z,3
2019-02-20T08:40:09.437Z,3
2019-02-20T08:41:09.424Z,3
2019-02-20T08:42:09.483Z,3
2019-02-20T08:43:09.513Z,3
2019-02-20T08:44:09.555Z,3
2019-02-20T08:45:09.350Z,3
2019-02-20T08:46:09.432Z,4
2019-02-20T08:47:09.508Z,2
2019-02-20T08:48:09.313Z,5
2019-02-20T08:49:09.415Z,6
2019-02-20T08:50:09.452Z,5
2019-02-20T08:51:09.325Z,5
2019-02-20T08:52:10.824Z,8
2019-02-20T08:53:09.398Z,6
2019-02-20T08:54:09.491Z,6
2019-02-20T08:55:09.411Z,5
2019-02-20T08:56:09.802Z,6
2019-02-20T08:57:09.401Z,5
2019-02-20T08:58:09.370Z,5
2019-02-20T08:59:09.783Z,5
2019-02-20T09:00:09.468Z,5
2019-02-20T09:01:09.652Z,5
2019-02-20T09:02:09.385Z,5
2019-02-20T09:03:09.358Z,5
2019-02-20T09:04:09.533Z,5
2019-02-20T09:05:09.459Z,5
2019-02-20T09:06:09.628Z,4
2019-02-20T09:07:09.692Z,5
2019-02-20T09:08:09.413Z,4
2019-02-20T09:09:10.118Z,6
2019-02-20T09:10:09.404Z,6
2019-02-20T09:11:09.765Z,5
2019-02-20T09:12:09.932Z,6
2019-02-20T09:13:09.554Z,5
2019-02-20T09:14:10.791Z,5
2019-02-20T09:15:10.517Z,4
2019-02-20T09:16:09.471Z,3
2019-02-20T09:17:09.422Z,3
2019-02-20T09:18:09.754Z,3
2019-02-20T09:19:09.592Z,3
2019-02-20T09:20:09.711Z,3
2019-02-20T09:21:09.596Z,3
2019-02-20T09:22:09.396Z,3
2019-02-20T09:23:09.443Z,3
2019-02-20T09:24:09.297Z,3
2019-02-20T09:25:19.025Z,3
2019-02-20T09:26:09.723Z,3
2019-02-20T09:27:09.672Z,4
2019-02-20T09:28:09.499Z,4
2019-02-20T09:29:09.680Z,4
2019-02-20T09:30:09.454Z,4
2019-02-20T09:31:09.454Z,4
2019-02-20T09:32:11.370Z,3
2019-02-20T09:33:09.518Z,3
2019-02-20T09:34:09.358Z,3
2019-02-20T09:35:10.106Z,3
2019-02-20T09:36:09.314Z,4
2019-02-20T09:37:09.421Z,3
2019-02-20T09:38:10.530Z,4
2019-02-20T09:39:09.348Z,4
2019-02-20T09:40:09.905Z,4
2019-02-20T09:41:09.384Z,4
2019-02-20T09:42:09.450Z,3
2019-02-20T09:43:09.367Z,3
2019-02-20T09:44:09.423Z,3
2019-02-20T09:45:09.352Z,3
2019-02-20T09:46:09.328Z,3
2019-02-20T09:47:09.539Z,3
2019-02-20T09:48:09.590Z,4
2019-02-20T09:49:09.338Z,4
2019-02-20T09:50:09.737Z,4
2019-02-20T09:51:09.347Z,4
2019-02-20T09:52:09.497Z,4
2019-02-20T09:53:09.327Z,4
2019-02-20T09:54:09.647Z,4
2019-02-20T09:55:09.378Z,4
2019-02-20T09:56:09.491Z,4
2019-02-20T09:57:09.443Z,4
2019-02-20T09:58:09.498Z,4
2019-02-20T09:59:14.748Z,4
2019-02-20T10:00:09.448Z,4
2019-02-20T10:01:09.343Z,4
2019-02-20T10:02:09.433Z,4
2019-02-20T10:03:09.681Z,4
2019-02-20T10:04:09.385Z,4
2019-02-20T10:05:09.598Z,4
2019-02-20T10:06:12.975Z,4
2019-02-20T10:07:09.494Z,3
2019-02-20T10:08:09.356Z,3
2019-02-20T10:09:09.413Z,3
2019-02-20T10:10:09.581Z,3
2019-02-20T10:11:09.382Z,3
2019-02-20T10:12:09.562Z,4
2019-02-20T10:13:11.123Z,3
2019-02-20T10:14:09.462Z,3
2019-02-20T10:15:09.355Z,3
2019-02-20T10:16:09.371Z,4
2019-02-20T10:17:09.464Z,4
2019-02-20T10:18:09.378Z,4
2019-02-20T10:19:09.298Z,3
2019-02-20T10:20:09.587Z,3
2019-02-20T10:21:09.419Z,3
2019-02-20T10:22:09.428Z,3
2019-02-20T10:23:09.352Z,3
2019-02-20T10:24:09.292Z,3
2019-02-20T10:25:09.544Z,3
2019-02-20T10:26:09.328Z,3
2019-02-20T10:27:09.458Z,3
2019-02-20T10:28:09.536Z,3
2019-02-20T10:29:09.659Z,3
2019-02-20T10:30:09.405Z,3
2019-02-20T10:31:09.464Z,3
2019-02-20T10:32:09.439Z,3
2019-02-20T10:33:09.370Z,3
2019-02-20T10:34:11.195Z,3
2019-02-20T10:35:09.410Z,3
2019-02-20T10:36:09.489Z,3
2019-02-20T10:37:09.479Z,3
2019-02-20T10:38:09.339Z,3
2019-02-20T10:39:09.597Z,4
2019-02-20T10:40:09.391Z,3
2019-02-20T10:41:09.443Z,3
2019-02-20T10:42:09.889Z,3
2019-02-20T10:43:10.791Z,4
2019-02-20T10:44:09.738Z,4
2019-02-20T10:45:12.047Z,4
2019-02-20T10:46:15.665Z,4
2019-02-20T10:47:12.484Z,5
2019-02-20T10:48:09.493Z,4
2019-02-20T10:49:09.320Z,3
2019-02-20T10:50:09.213Z,4
2019-02-20T10:51:09.501Z,5
2019-02-20T10:52:09.259Z,4
2019-02-20T10:53:09.623Z,4
2019-02-20T10:54:09.185Z,4
2019-02-20T10:55:09.423Z,3
2019-02-20T10:56:09.732Z,4
2019-02-20T10:57:09.284Z,3
2019-02-20T10:58:09.230Z,3
2019-02-20T10:59:09.399Z,4
2019-02-20T11:00:09.274Z,3
2019-02-20T11:01:09.287Z,3
2019-02-20T11:02:09.520Z,3
2019-02-20T11:03:09.406Z,3
2019-02-20T11:04:09.743Z,3
2019-02-20T11:05:09.296Z,3
2019-02-20T11:06:09.454Z,3
2019-02-20T11:07:09.392Z,3
2019-02-20T11:08:09.510Z,3
2019-02-20T11:09:09.478Z,3
2019-02-20T11:10:09.373Z,3
2019-02-20T11:11:09.665Z,3
2019-02-20T11:12:09.574Z,3
2019-02-20T11:13:09.513Z,3
2019-02-20T11:14:09.540Z,4
2019-02-20T11:15:09.331Z,4
2019-02-20T11:16:10.731Z,5
2019-02-20T11:17:09.844Z,4
2019-02-20T11:18:09.290Z,4
2019-02-20T11:19:09.633Z,5
2019-02-20T11:20:09.369Z,6
2019-02-20T11:21:09.491Z,4
2019-02-20T11:22:09.387Z,4
2019-02-20T11:23:09.318Z,4
2019-02-20T11:24:09.502Z,5
2019-02-20T11:25:09.625Z,4
2019-02-20T11:26:17.559Z,4
2019-02-20T11:27:09.558Z,4
2019-02-20T11:28:09.442Z,5
2019-02-20T11:29:09.397Z,3
2019-02-20T11:30:09.442Z,3
2019-02-20T11:31:09.364Z,3
2019-02-20T11:32:09.595Z,3
2019-02-20T11:33:09.300Z,3
2019-02-20T11:34:10.037Z,3
2019-02-20T11:35:09.354Z,3
2019-02-20T11:36:09.528Z,2
2019-02-20T11:37:09.294Z,3
2019-02-20T11:38:09.339Z,3
2019-02-20T11:39:11.664Z,3
2019-02-20T11:40:09.431Z,3
2019-02-20T11:41:09.340Z,3
2019-02-20T11:42:09.697Z,3
2019-02-20T11:43:09.491Z,3
2019-02-20T11:44:09.446Z,3
2019-02-20T11:45:09.401Z,3
2019-02-20T11:46:09.527Z,3
2019-02-20T11:47:09.800Z,3
2019-02-20T11:48:09.333Z,4
2019-02-20T11:49:09.556Z,3
2019-02-20T11:50:09.916Z,4
2019-02-20T11:51:09.572Z,4
2019-02-20T11:52:09.825Z,4
2019-02-20T11:53:09.370Z,4
2019-02-20T11:54:09.321Z,5
2019-02-20T11:55:09.412Z,6
2019-02-20T11:56:09.932Z,7
2019-02-20T11:57:09.957Z,7
2019-02-20T11:58:14.190Z,6
2019-02-20T11:59:12.531Z,6
2019-02-20T12:00:10.907Z,5
2019-02-20T12:01:11.025Z,5
2019-02-20T12:02:09.749Z,5
2019-02-20T12:03:12.803Z,9
2019-02-20T12:04:13.589Z,7
2019-02-20T12:05:09.917Z,9
2019-02-20T12:06:09.537Z,3
2019-02-20T12:07:09.307Z,3
2019-02-20T12:08:09.559Z,4
2019-02-20T12:09:09.274Z,3
2019-02-20T12:10:09.444Z,4
2019-02-20T12:11:09.514Z,4
2019-02-20T12:12:09.563Z,3
2019-02-20T12:13:09.378Z,3
2019-02-20T12:14:09.419Z,3
2019-02-20T12:15:09.353Z,3
2019-02-20T12:16:10.194Z,4
2019-02-20T12:17:09.297Z,4
2019-02-20T12:18:17.171Z,5
2019-02-20T12:19:09.891Z,5
2019-02-20T12:20:09.323Z,5
2019-02-20T12:21:09.738Z,4
2019-02-20T12:22:09.354Z,4
2019-02-20T12:23:09.426Z,3
2019-02-20T12:24:09.343Z,3
2019-02-20T12:25:09.442Z,3
2019-02-20T12:26:09.534Z,3
2019-02-20T12:27:09.577Z,3
2019-02-20T12:28:11.628Z,3
2019-02-20T12:29:11.148Z,3
2019-02-20T12:30:09.544Z,3
2019-02-20T12:31:09.397Z,3
2019-02-20T12:32:09.652Z,3
2019-02-20T12:33:09.334Z,3
2019-02-20T12:34:09.504Z,3
2019-02-20T12:35:09.330Z,4
2019-02-20T12:36:09.392Z,3
2019-02-20T12:37:09.816Z,3
2019-02-20T12:38:09.322Z,3
2019-02-20T12:39:09.561Z,3
2019-02-20T12:40:09.308Z,3
2019-02-20T12:41:10.896Z,4
2019-02-20T12:42:09.374Z,3
2019-02-20T12:43:09.434Z,3
2019-02-20T12:44:09.608Z,3
2019-02-20T12:45:09.347Z,4
2019-02-20T12:46:10.806Z,4
2019-02-20T12:47:09.665Z,4
2019-02-20T12:48:09.306Z,4
2019-02-20T12:49:09.772Z,2
2019-02-20T12:50:09.312Z,3
2019-02-20T12:51:09.492Z,3
2019-02-20T12:52:10.227Z,4
2019-02-20T12:53:09.347Z,3
2019-02-20T12:54:09.665Z,3
2019-02-20T12:55:09.421Z,3
2019-02-20T12:56:10.811Z,3
2019-02-20T12:57:10.368Z,3
2019-02-20T12:58:09.595Z,3
2019-02-20T12:59:11.646Z,3
2019-02-20T13:00:10.445Z,3
2019-02-20T13:01:09.557Z,3
2019-02-20T13:02:09.786Z,2
2019-02-20T13:03:09.474Z,3
2019-02-20T13:04:09.376Z,4
2019-02-20T13:05:09.314Z,3
2019-02-20T13:06:10.924Z,5
2019-02-20T13:07:09.401Z,3
2019-02-20T13:08:09.474Z,3
2019-02-20T13:09:09.302Z,3
2019-02-20T13:10:09.296Z,3
2019-02-20T13:11:09.445Z,3
2019-02-20T13:12:09.749Z,3
2019-02-20T13:13:09.516Z,3
2019-02-20T13:14:09.563Z,2
2019-02-20T13:15:09.591Z,2
2019-02-20T13:16:11.411Z,4
2019-02-20T13:17:10.987Z,4
2019-02-20T13:18:09.447Z,4
2019-02-20T13:19:09.731Z,4
2019-02-20T13:20:09.451Z,4
2019-02-20T13:21:11.511Z,4
2019-02-20T13:22:09.376Z,4
2019-02-20T13:23:09.431Z,3
2019-02-20T13:24:09.331Z,3
2019-02-20T13:25:09.402Z,3
2019-02-20T13:26:09.541Z,3
2019-02-20T13:27:10.273Z,3
2019-02-20T13:28:09.481Z,3
2019-02-20T13:29:09.333Z,3
2019-02-20T13:30:09.616Z,3
2019-02-20T13:31:09.868Z,3
2019-02-20T13:32:09.497Z,2
2019-02-20T13:33:09.509Z,2
2019-02-20T13:34:09.375Z,2
2019-02-20T13:35:09.560Z,2
2019-02-20T13:36:09.377Z,2
2019-02-20T13:37:09.439Z,2
2019-02-20T13:38:09.347Z,2
2019-02-20T13:39:09.454Z,3
2019-02-20T13:40:09.450Z,3
2019-02-20T13:41:09.598Z,2
2019-02-20T13:42:09.376Z,2
2019-02-20T13:43:09.515Z,2
2019-02-20T13:44:09.538Z,2
2019-02-20T13:45:09.395Z,2
2019-02-20T13:46:09.827Z,2
2019-02-20T13:47:09.338Z,2
2019-02-20T13:48:09.480Z,2
2019-02-20T13:49:09.360Z,2
2019-02-20T13:50:11.574Z,2
2019-02-20T13:51:09.469Z,2
2019-02-20T13:52:09.465Z,2
2019-02-20T13:53:11.049Z,2
2019-02-20T13:54:09.389Z,2
2019-02-20T13:55:09.594Z,2
2019-02-20T13:56:09.401Z,2
2019-02-20T13:57:09.560Z,2
2019-02-20T13:58:09.332Z,2
2019-02-20T13:59:09.613Z,2
2019-02-20T14:00:09.344Z,2
2019-02-20T14:01:09.426Z,2
2019-02-20T14:02:09.584Z,2
2019-02-20T14:03:09.345Z,2
2019-02-20T14:04:09.433Z,2
2019-02-20T14:05:09.361Z,2
2019-02-20T14:06:09.473Z,3
2019-02-20T14:07:09.764Z,3
2019-02-20T14:08:09.475Z,3
2019-02-20T14:09:09.373Z,3
2019-02-20T14:10:09.460Z,3
2019-02-20T14:11:09.518Z,3
2019-02-20T14:12:09.489Z,3
2019-02-20T14:13:09.508Z,3
2019-02-20T14:14:09.298Z,3
2019-02-20T14:15:09.711Z,3
2019-02-20T14:16:09.293Z,3
2019-02-20T14:17:09.500Z,3
2019-02-20T14:18:09.492Z,3
2019-02-20T14:19:09.423Z,3
2019-02-20T14:20:09.523Z,3
2019-02-20T14:21:09.450Z,3
2019-02-20T14:22:09.498Z,3
2019-02-20T14:23:09.662Z,4
2019-02-20T14:24:10.026Z,4
2019-02-20T14:25:09.696Z,3
2019-02-20T14:26:09.692Z,4
2019-02-20T14:27:11.088Z,2
2019-02-20T14:28:10.099Z,2
2019-02-20T14:29:09.414Z,2
2019-02-20T14:30:09.363Z,3
2019-02-20T14:31:09.543Z,3
2019-02-20T14:32:09.368Z,2
2019-02-20T14:33:09.491Z,2
2019-02-20T14:34:09.426Z,2
2019-02-20T14:35:10.148Z,2
2019-02-20T14:36:09.572Z,2
2019-02-20T14:37:09.343Z,2
2019-02-20T14:38:09.585Z,2
2019-02-20T14:39:09.378Z,2
2019-02-20T14:40:09.906Z,3
2019-02-20T14:41:09.440Z,4
2019-02-20T14:42:10.964Z,4
2019-02-20T14:43:09.482Z,4
2019-02-20T14:44:09.918Z,3
2019-02-20T14:45:09.564Z,3
2019-02-20T14:46:09.592Z,2
2019-02-20T14:47:09.475Z,2
2019-02-20T14:48:09.712Z,5